Time;durP1;ratioP1;P1;durP2;ratioP2;P2;SDS_P1;SDS_P2;PMS_P1;PMS_P2;Temp;Humidity;BMP_temperature;BMP_pressure;BME280_temperature;BME280_humidity;BME280_pressure;Samples;Min_cycle;Max_cycle;Signal;HPM_P1;HPM_P2
2021/09/19 00:01:58;;;;;;;11.63;7.95;;;;;;;14.95;100.00;100183.03;5036277;28;20526;-65
2021/09/19 00:04:41;;;;;;;8.30;7.18;;;;;;;14.95;100.00;100184.88;5035908;28;20095;-66
2021/09/19 00:07:25;;;;;;;10.43;7.60;;;;;;;14.93;100.00;100184.22;5036550;28;20056;-66
2021/09/19 00:10:11;;;;;;;7.80;7.00;;;;;;;14.90;100.00;100181.91;5036134;28;20052;-66
2021/09/19 00:12:56;;;;;;;7.30;6.60;;;;;;;14.88;100.00;100176.69;5036172;28;20515;-66
2021/09/19 00:15:40;;;;;;;8.77;6.68;;;;;;;14.84;100.00;100171.84;5036108;28;20052;-66
2021/09/19 00:18:24;;;;;;;9.20;7.55;;;;;;;14.83;100.00;100175.53;5035346;28;20052;-66
2021/09/19 00:21:08;;;;;;;8.25;6.90;;;;;;;14.80;100.00;100170.53;5035046;28;20103;-66
2021/09/19 00:23:52;;;;;;;8.30;7.00;;;;;;;14.77;100.00;100165.47;5035314;28;20079;-66
2021/09/19 00:26:36;;;;;;;7.65;6.65;;;;;;;14.72;100.00;100168.72;5035474;28;20100;-65
2021/09/19 00:29:19;;;;;;;8.02;7.03;;;;;;;14.68;100.00;100171.91;5036010;28;20581;-66
2021/09/19 00:32:04;;;;;;;8.10;6.25;;;;;;;14.62;100.00;100162.72;5035034;28;20099;-66
2021/09/19 00:34:48;;;;;;;9.60;7.10;;;;;;;14.62;100.00;100170.75;5036033;28;20052;-66
2021/09/19 00:37:32;;;;;;;7.38;5.90;;;;;;;14.59;100.00;100156.84;5035744;28;20427;-66
2021/09/19 00:40:16;;;;;;;7.65;6.20;;;;;;;14.54;100.00;100165.41;5034830;28;20056;-66
2021/09/19 00:42:59;;;;;;;12.55;7.45;;;;;;;14.52;100.00;100159.38;5036180;28;20438;-66
2021/09/19 00:45:43;;;;;;;7.97;6.18;;;;;;;14.51;100.00;100156.88;5034601;28;20103;-65
2021/09/19 00:48:27;;;;;;;8.52;6.40;;;;;;;14.46;100.00;100154.69;5034842;28;20045;-66
2021/09/19 00:51:11;;;;;;;8.30;6.32;;;;;;;14.45;100.00;100146.81;5034249;28;20136;-66
2021/09/19 00:53:56;;;;;;;8.52;6.00;;;;;;;14.43;100.00;100157.72;5035544;28;20578;-66
2021/09/19 00:56:41;;;;;;;7.72;6.05;;;;;;;14.42;100.00;100149.84;5034347;28;20056;-66
2021/09/19 00:59:25;;;;;;;6.80;5.60;;;;;;;14.40;100.00;100146.50;5035439;28;20182;-66
2021/09/19 01:02:09;;;;;;;8.13;6.35;;;;;;;14.36;100.00;100145.16;5034816;28;20125;-66
2021/09/19 01:04:53;;;;;;;9.57;6.30;;;;;;;14.33;100.00;100149.03;5035560;28;20461;-66
2021/09/19 01:07:38;;;;;;;8.45;5.78;;;;;;;14.29;100.00;100146.84;5035168;28;20052;-66
2021/09/19 01:10:24;;;;;;;6.88;6.18;;;;;;;14.29;100.00;100141.50;5020161;28;20422;-66
2021/09/19 01:13:09;;;;;;;7.78;6.70;;;;;;;14.25;100.00;100148.19;5034357;28;20439;-65
2021/09/19 01:15:54;;;;;;;6.78;6.07;;;;;;;14.17;100.00;100134.81;5035029;28;20419;-66
2021/09/19 01:18:42;;;;;;;7.07;5.65;;;;;;;14.15;100.00;100143.00;5033929;28;20099;-66
2021/09/19 01:21:26;;;;;;;8.38;6.03;;;;;;;14.12;100.00;100132.63;5020151;28;20099;-66
2021/09/19 01:24:09;;;;;;;8.18;5.85;;;;;;;14.11;100.00;100130.94;5033848;28;20570;-66
2021/09/19 01:26:54;;;;;;;8.30;6.55;;;;;;;14.07;100.00;100131.44;5034010;28;20084;-66
2021/09/19 01:29:38;;;;;;;7.30;5.93;;;;;;;14.05;100.00;100128.06;5034959;28;20060;-66
2021/09/19 01:32:22;;;;;;;8.50;6.05;;;;;;;14.03;100.00;100116.69;5033610;28;20069;-66
2021/09/19 01:35:07;;;;;;;7.93;6.00;;;;;;;13.97;100.00;100122.75;5034955;28;20071;-66
2021/09/19 01:37:54;;;;;;;7.47;6.10;;;;;;;13.98;100.00;100116.38;5033588;28;20095;-66
2021/09/19 01:40:39;;;;;;;6.93;5.72;;;;;;;13.96;100.00;100113.03;5033642;28;20092;-66
2021/09/19 01:43:22;;;;;;;7.15;6.32;;;;;;;13.97;100.00;100110.16;5033765;28;20056;-66
2021/09/19 01:46:06;;;;;;;8.10;6.38;;;;;;;13.94;100.00;100112.34;5019515;28;20511;-66
2021/09/19 01:48:50;;;;;;;8.20;6.20;;;;;;;13.91;100.00;100104.66;5033621;28;20557;-66
2021/09/19 01:51:35;;;;;;;6.78;5.75;;;;;;;13.89;100.00;100112.84;5019203;28;20191;-66
2021/09/19 01:54:19;;;;;;;9.07;5.63;;;;;;;13.88;100.00;100113.03;5034534;28;20458;-66
2021/09/19 01:57:03;;;;;;;9.07;6.13;;;;;;;13.81;100.00;100107.53;5034237;28;20052;-66
2021/09/19 01:59:54;;;;;;;7.72;5.20;;;;;;;13.85;100.00;100113.34;5034351;28;20132;-66
2021/09/19 02:02:39;;;;;;;6.90;5.85;;;;;;;13.83;100.00;100112.69;5034364;28;20130;-66
2021/09/19 02:05:23;;;;;;;7.18;5.72;;;;;;;13.81;100.00;100106.69;5034591;28;20091;-66
2021/09/19 02:08:08;;;;;;;6.90;5.97;;;;;;;13.80;100.00;100100.50;5033242;28;20059;-66
2021/09/19 02:10:52;;;;;;;6.78;5.07;;;;;;;13.76;100.00;100103.69;5033155;28;20052;-66
2021/09/19 02:13:37;;;;;;;5.78;5.20;;;;;;;13.71;100.00;100112.22;5032922;28;20064;-66
2021/09/19 02:16:22;;;;;;;5.25;4.75;;;;;;;13.69;100.00;100102.66;5034537;28;20041;-66
2021/09/19 02:19:06;;;;;;;6.53;5.10;;;;;;;13.67;100.00;100099.31;5033868;28;20052;-66
2021/09/19 02:21:50;;;;;;;6.43;5.18;;;;;;;13.67;100.00;100093.97;5033677;28;20115;-66
2021/09/19 02:24:34;;;;;;;8.00;5.63;;;;;;;13.67;100.00;100099.31;5034061;28;20048;-66
2021/09/19 02:27:20;;;;;;;9.27;5.32;;;;;;;13.64;100.00;100099.63;5032907;28;20567;-66
2021/09/19 02:30:10;;;;;;;6.35;5.25;;;;;;;13.64;100.00;100105.84;5019198;28;20506;-66
2021/09/19 02:32:54;;;;;;;5.65;4.93;;;;;;;13.59;100.00;100097.50;5032600;28;20079;-66
2021/09/19 02:35:38;;;;;;;8.52;4.95;;;;;;;13.58;100.00;100101.16;5032655;28;20052;-66
2021/09/19 02:38:22;;;;;;;6.15;4.72;;;;;;;13.57;100.00;100095.97;5032819;28;20071;-65
2021/09/19 02:41:06;;;;;;;6.38;4.45;;;;;;;13.51;100.00;100089.44;5032672;28;20043;-66
2021/09/19 02:43:50;;;;;;;6.50;4.63;;;;;;;13.53;100.00;100083.91;5033694;28;20135;-66
2021/09/19 02:46:34;;;;;;;6.50;4.70;;;;;;;13.46;100.00;100083.75;5033518;28;20052;-66
2021/09/19 02:49:19;;;;;;;8.00;4.75;;;;;;;13.49;100.00;100079.91;5032523;28;20071;-66
2021/09/19 02:52:03;;;;;;;9.93;4.70;;;;;;;13.46;100.00;100080.25;5033467;28;20091;-66
2021/09/19 02:54:47;;;;;;;6.75;4.18;;;;;;;13.41;100.00;100072.72;5049783;23;20109;-73
2021/09/19 02:57:31;;;;;;;8.93;4.80;;;;;;;13.41;100.00;100080.75;4993478;28;20065;-71
2021/09/19 03:00:18;;;;;;;5.78;4.25;;;;;;;13.42;100.00;100082.41;4994153;28;20133;-72
2021/09/19 03:03:02;;;;;;;5.15;4.30;;;;;;;13.39;100.00;100079.22;4993714;28;20053;-72
2021/09/19 03:05:46;;;;;;;5.95;4.25;;;;;;;13.33;100.00;100077.19;4974553;28;20141;-72
2021/09/19 03:08:30;;;;;;;5.90;4.65;;;;;;;13.32;100.00;100078.19;4973370;28;20054;-71
2021/09/19 03:11:14;;;;;;;7.40;4.45;;;;;;;13.28;100.00;100074.19;4973848;28;20065;-72
2021/09/19 03:13:58;;;;;;;6.55;4.60;;;;;;;13.24;100.00;100068.34;4973608;28;20049;-72
2021/09/19 03:16:42;;;;;;;6.47;4.63;;;;;;;13.22;100.00;100066.81;4973586;28;20134;-71
2021/09/19 03:19:25;;;;;;;6.00;4.95;;;;;;;13.17;100.00;100066.50;4973640;28;20054;-72
2021/09/19 03:22:09;;;;;;;6.35;4.50;;;;;;;13.14;100.00;100069.50;4973187;28;20045;-71
2021/09/19 03:24:54;;;;;;;4.65;4.25;;;;;;;13.12;100.00;100076.84;4989774;28;20122;-72
2021/09/19 03:27:38;;;;;;;5.25;4.20;;;;;;;13.11;100.00;100064.47;4977539;28;20548;-72
2021/09/19 03:30:22;;;;;;;7.82;4.20;;;;;;;13.09;100.00;100069.16;4977294;28;20113;-72
2021/09/19 03:33:06;;;;;;;6.78;4.28;;;;;;;13.09;100.00;100071.81;4977385;28;20046;-71
2021/09/19 03:35:50;;;;;;;6.55;4.75;;;;;;;13.01;100.00;100072.66;4977337;28;20421;-72
2021/09/19 03:38:34;;;;;;;7.13;4.95;;;;;;;12.97;100.00;100065.13;4976993;28;20101;-72
2021/09/19 03:41:18;;;;;;;4.90;4.43;;;;;;;12.96;100.00;100071.47;4977132;28;20465;-72
2021/09/19 03:44:04;;;;;;;7.65;4.63;;;;;;;12.95;100.00;100080.50;4977092;28;20053;-72
2021/09/19 03:46:47;;;;;;;5.50;4.90;;;;;;;12.89;100.00;100071.25;4963552;28;20058;-72
2021/09/19 03:49:31;;;;;;;5.57;4.82;;;;;;;12.89;100.00;100081.13;4990819;28;20046;-72
2021/09/19 03:52:15;;;;;;;6.40;5.00;;;;;;;12.85;100.00;100082.44;4977030;28;20046;-72
2021/09/19 03:54:59;;;;;;;8.70;5.65;;;;;;;12.80;100.00;100082.09;4976577;28;20054;-71
2021/09/19 03:57:43;;;;;;;6.97;5.20;;;;;;;12.75;100.00;100083.56;4976963;28;20219;-72
2021/09/19 04:00:27;;;;;;;5.38;4.88;;;;;;;12.73;100.00;100080.22;4977889;28;20053;-72
2021/09/19 04:03:11;;;;;;;8.27;5.85;;;;;;;12.61;100.00;100082.34;4990348;28;20042;-72
2021/09/19 04:05:55;;;;;;;7.30;5.75;;;;;;;12.57;100.00;100086.34;4977732;28;20050;-72
2021/09/19 04:08:39;;;;;;;8.18;5.25;;;;;;;12.56;100.00;100078.47;4976555;28;20408;-72
2021/09/19 04:11:23;;;;;;;6.68;5.88;;;;;;;12.55;100.00;100083.00;4976570;28;20412;-71
2021/09/19 04:14:07;;;;;;;9.38;5.97;;;;;;;12.50;100.00;100085.31;4976825;28;20101;-72
2021/09/19 04:16:52;;;;;;;8.65;6.43;;;;;;;12.47;100.00;100085.66;4976907;28;20453;-71
2021/09/19 04:19:36;;;;;;;7.20;6.38;;;;;;;12.44;100.00;100088.66;4977465;28;20053;-72
2021/09/19 04:22:23;;;;;;;9.32;5.80;;;;;;;12.42;100.00;100082.63;4976465;28;20140;-72
2021/09/19 04:25:08;;;;;;;8.68;7.30;;;;;;;12.38;100.00;100080.44;4976253;28;20134;-72
2021/09/19 04:27:53;;;;;;;7.90;6.53;;;;;;;12.34;100.00;100079.91;4976309;28;20133;-72
2021/09/19 04:30:37;;;;;;;9.13;7.28;;;;;;;12.34;100.00;100079.06;4962800;28;20101;-72
2021/09/19 04:33:21;;;;;;;10.23;6.32;;;;;;;12.27;100.00;100083.41;4976237;28;20109;-73
2021/09/19 04:36:04;;;;;;;10.18;7.75;;;;;;;12.28;100.00;100077.03;4976126;28;20421;-72
2021/09/19 04:38:48;;;;;;;12.93;7.45;;;;;;;12.31;100.00;100085.56;4976497;28;20494;-71
2021/09/19 04:41:32;;;;;;;9.07;7.18;;;;;;;12.32;100.00;100091.75;4976782;28;20465;-72
2021/09/19 04:44:16;;;;;;;9.85;7.35;;;;;;;12.28;100.00;100096.56;4976926;28;20045;-72
2021/09/19 04:47:00;;;;;;;9.52;7.60;;;;;;;12.24;100.00;100103.25;4989671;28;20062;-72
2021/09/19 04:49:44;;;;;;;9.98;7.13;;;;;;;12.23;100.00;100098.91;4976257;28;20112;-72
2021/09/19 04:52:29;;;;;;;9.18;7.07;;;;;;;12.19;100.00;100102.88;4975702;28;20520;-71
2021/09/19 04:55:13;;;;;;;10.23;7.88;;;;;;;12.17;100.00;100107.53;4975480;28;20088;-72
2021/09/19 04:57:57;;;;;;;9.65;7.60;;;;;;;12.15;100.00;100109.53;4975904;28;20053;-70
2021/09/19 05:00:41;;;;;;;11.32;7.30;;;;;;;12.08;100.00;100105.81;4975623;28;20081;-72
2021/09/19 05:03:25;;;;;;;9.90;7.25;;;;;;;12.11;100.00;100110.88;4975751;28;20101;-72
2021/09/19 05:06:09;;;;;;;9.35;7.55;;;;;;;12.12;100.00;100112.53;4975744;28;20474;-71
2021/09/19 05:08:53;;;;;;;10.70;7.63;;;;;;;12.12;100.00;100112.53;4975894;28;20101;-71
2021/09/19 05:11:37;;;;;;;8.00;6.95;;;;;;;12.13;100.00;100116.88;4975608;28;20049;-72
2021/09/19 05:14:21;;;;;;;8.25;6.80;;;;;;;12.11;100.00;100121.56;4961703;28;20106;-72
2021/09/19 05:17:05;;;;;;;10.23;7.57;;;;;;;12.11;100.00;100121.56;4975498;28;20058;-72
2021/09/19 05:19:48;;;;;;;12.23;6.93;;;;;;;12.11;100.00;100121.56;4975718;28;20042;-71
2021/09/19 05:22:32;;;;;;;8.20;6.50;;;;;;;12.11;100.00;100129.56;4975475;28;20544;-72
2021/09/19 05:25:16;;;;;;;7.72;6.93;;;;;;;12.11;100.00;100129.56;4975233;28;20053;-71
2021/09/19 05:28:00;;;;;;;8.68;7.15;;;;;;;12.09;100.00;100128.88;4975017;28;20077;-71
2021/09/19 05:30:44;;;;;;;8.15;6.68;;;;;;;12.12;100.00;100133.91;4988726;28;20112;-71
2021/09/19 05:33:28;;;;;;;11.75;7.13;;;;;;;12.15;100.00;100138.94;4974489;28;20049;-71
2021/09/19 05:36:12;;;;;;;8.70;6.47;;;;;;;12.22;100.00;100134.66;4974602;28;20105;-71
2021/09/19 05:38:56;;;;;;;8.48;6.80;;;;;;;12.24;100.00;100137.16;4988131;28;20127;-70
2021/09/19 05:41:40;;;;;;;9.52;6.95;;;;;;;12.21;100.00;100132.94;4974436;28;20057;-72
2021/09/19 05:44:24;;;;;;;7.80;6.78;;;;;;;12.25;100.00;100145.00;4974261;28;20054;-71
2021/09/19 05:47:08;;;;;;;9.27;6.88;;;;;;;12.30;100.00;100148.03;4974680;28;20524;-71
2021/09/19 05:49:52;;;;;;;8.65;6.97;;;;;;;12.30;100.00;100141.88;4974291;28;20517;-72
2021/09/19 05:52:36;;;;;;;9.48;6.85;;;;;;;12.31;100.00;100133.66;4974335;28;20133;-69
2021/09/19 05:55:20;;;;;;;7.25;6.55;;;;;;;12.36;100.00;100139.41;4974042;28;20116;-72
2021/09/19 05:58:04;;;;;;;8.65;6.90;;;;;;;12.43;100.00;100140.44;4974319;28;20053;-71
2021/09/19 06:00:48;;;;;;;8.43;6.57;;;;;;;12.47;100.00;100144.47;4973987;28;20057;-70
2021/09/19 06:03:31;;;;;;;9.23;6.88;;;;;;;12.55;100.00;100135.66;4975214;28;20118;-71
2021/09/19 06:06:15;;;;;;;8.57;6.72;;;;;;;12.62;100.00;100136.69;4974146;28;20045;-71
2021/09/19 06:08:59;;;;;;;8.02;6.43;;;;;;;12.70;100.00;100134.88;4974145;28;20076;-71
2021/09/19 06:11:43;;;;;;;9.65;6.53;;;;;;;12.77;100.00;100135.91;4973820;28;20045;-72
2021/09/19 06:14:27;;;;;;;9.15;6.35;;;;;;;12.82;100.00;100133.59;4987625;28;20066;-70
2021/09/19 06:17:11;;;;;;;9.02;6.05;;;;;;;12.90;100.00;100136.28;4973733;28;20200;-71
2021/09/19 06:19:54;;;;;;;11.38;6.45;;;;;;;12.99;100.00;100130.00;4974649;28;20049;-71
2021/09/19 06:22:38;;;;;;;8.00;6.18;;;;;;;13.01;100.00;100125.31;4973301;28;20054;-71
2021/09/19 06:25:22;;;;;;;7.82;5.47;;;;;;;13.09;100.00;100126.22;4974574;28;20152;-72
2021/09/19 06:28:06;;;;;;;8.90;5.32;;;;;;;13.16;100.00;100131.75;4973504;28;20146;-71
2021/09/19 06:30:50;;;;;;;10.27;5.93;;;;;;;13.29;100.00;100124.06;4973498;28;20133;-72
2021/09/19 06:33:34;;;;;;;6.75;5.30;;;;;;;13.37;100.00;100119.53;4974638;28;20078;-71
2021/09/19 06:36:19;;;;;;;5.80;5.03;;;;;;;13.46;100.00;100117.72;4973412;28;20045;-70
2021/09/19 06:39:03;;;;;;;8.35;5.53;;;;;;;13.56;100.00;100110.38;4973315;28;20058;-70
2021/09/19 06:41:50;;;;;;;5.80;4.97;;;;;;;13.67;100.00;100110.03;4973299;28;20101;-70
2021/09/19 06:44:34;;;;;;;5.00;4.43;;;;;;;13.76;100.00;100123.25;4973092;28;20116;-70
2021/09/19 06:47:18;;;;;;;5.13;4.60;;;;;;;13.93;100.00;100121.41;4974113;28;20062;-70
2021/09/19 06:50:03;;;;;;;8.57;4.03;;;;;;;14.05;100.00;100120.88;4973240;28;20128;-70
2021/09/19 06:52:47;;;;;;;5.85;3.72;;;;;;;14.16;100.00;100127.75;4986800;28;20457;-70
2021/09/19 06:55:31;;;;;;;5.13;4.03;;;;;;;14.25;100.00;100127.59;4972687;28;20093;-71
2021/09/19 06:58:14;;;;;;;4.22;3.55;;;;;;;14.38;100.00;100132.44;4985871;28;20129;-71
2021/09/19 07:00:58;;;;;;;5.65;3.78;;;;;;;14.51;100.00;100136.22;4974076;28;20065;-70
2021/09/19 07:03:43;;;;;;;4.95;4.10;;;;;;;14.64;100.00;100136.53;4973804;28;20085;-71
2021/09/19 07:06:27;;;;;;;4.25;3.60;;;;;;;14.74;100.00;100144.38;4986527;28;20132;-71
2021/09/19 07:09:11;;;;;;;4.05;3.50;;;;;;;14.84;100.00;100150.38;4973787;28;20133;-71
2021/09/19 07:11:54;;;;;;;6.72;3.53;;;;;;;14.93;100.00;100141.28;4972733;28;20046;-71
2021/09/19 07:14:38;;;;;;;5.07;3.30;;;;;;;15.07;100.00;100151.25;4973381;28;20147;-71
2021/09/19 07:17:22;;;;;;;4.18;3.78;;;;;;;15.10;100.00;100156.31;4974461;28;20053;-69
2021/09/19 07:20:07;;;;;;;4.38;3.65;;;;;;;15.21;99.45;100143.28;4973493;28;20050;-71
2021/09/19 07:22:51;;;;;;;5.13;4.03;;;;;;;15.33;98.52;100154.53;4986818;28;20074;-71
2021/09/19 07:25:35;;;;;;;4.45;3.40;;;;;;;15.45;98.21;100150.41;4973669;28;20058;-71
2021/09/19 07:28:19;;;;;;;5.28;3.70;;;;;;;15.53;98.13;100132.38;4987155;28;20053;-71
2021/09/19 07:31:03;;;;;;;6.50;3.28;;;;;;;15.63;97.16;100143.72;4986921;28;20093;-71
2021/09/19 07:33:48;;;;;;;4.05;3.65;;;;;;;15.75;95.84;100137.75;4973109;28;20045;-71
2021/09/19 07:36:35;;;;;;;5.10;3.85;;;;;;;15.80;94.19;100148.81;4973410;28;20057;-71
2021/09/19 07:39:19;;;;;;;7.47;3.83;;;;;;;15.85;94.07;100142.91;4973137;28;20050;-71
2021/09/19 07:42:03;;;;;;;3.80;3.10;;;;;;;15.94;93.85;100153.38;4986850;28;20201;-70
2021/09/19 07:44:47;;;;;;;3.28;2.85;;;;;;;16.09;94.15;100156.94;4986987;28;20105;-71
2021/09/19 07:47:32;;;;;;;4.22;3.10;;;;;;;16.22;92.98;100164.41;4973231;28;20053;-71
2021/09/19 07:50:16;;;;;;;4.25;3.15;;;;;;;16.34;91.87;100166.47;4973264;28;20130;-71
2021/09/19 07:53:00;;;;;;;4.20;3.25;;;;;;;16.39;90.34;100164.06;4974112;28;20049;-71
2021/09/19 07:55:44;;;;;;;4.00;2.90;;;;;;;16.47;90.45;100166.69;4959206;28;20054;-71
2021/09/19 07:58:28;;;;;;;3.35;3.05;;;;;;;16.56;90.02;100165.59;4973238;28;20516;-71
2021/09/19 08:01:12;;;;;;;5.25;4.18;;;;;;;16.75;90.11;100183.03;4972841;28;20057;-70
2021/09/19 08:03:56;;;;;;;3.83;3.42;;;;;;;16.86;88.33;100187.97;4973133;28;20516;-70
2021/09/19 08:06:39;;;;;;;4.70;3.22;;;;;;;16.87;86.26;100189.66;4974314;28;20629;-70
2021/09/19 08:09:25;;;;;;;4.00;3.40;;;;;;;17.00;85.97;100190.66;4974015;28;20065;-71
2021/09/19 08:12:09;;;;;;;4.47;3.30;;;;;;;17.14;85.63;100187.13;4976329;28;20488;-71
2021/09/19 08:14:53;;;;;;;5.22;3.65;;;;;;;17.30;84.40;100178.81;4976556;28;20521;-70
2021/09/19 08:17:37;;;;;;;3.92;3.50;;;;;;;17.38;84.11;100173.34;4977551;28;20050;-70
2021/09/19 08:20:21;;;;;;;6.38;3.25;;;;;;;17.59;82.53;100176.06;4976358;28;20109;-70
2021/09/19 08:23:05;;;;;;;3.65;2.90;;;;;;;17.61;81.92;100168.63;4990166;28;20122;-70
2021/09/19 08:25:49;;;;;;;4.00;3.33;;;;;;;17.74;82.78;100171.47;4977497;28;20053;-71
2021/09/19 08:28:33;;;;;;;4.90;3.45;;;;;;;17.80;80.92;100168.00;4975845;28;20054;-69
2021/09/19 08:31:17;;;;;;;4.05;3.47;;;;;;;18.02;79.79;100158.84;4975940;28;20049;-71
2021/09/19 08:34:00;;;;;;;4.50;3.42;;;;;;;18.11;79.67;100155.00;4976187;28;20073;-71
2021/09/19 08:36:44;;;;;;;3.53;3.22;;;;;;;18.20;79.32;100156.53;4989911;28;20121;-71
2021/09/19 08:39:28;;;;;;;2.72;2.50;;;;;;;18.38;78.83;100154.22;4976371;28;20049;-71
2021/09/19 08:42:12;;;;;;;4.88;3.30;;;;;;;18.54;78.12;100168.25;4977057;28;20098;-71
2021/09/19 08:44:56;;;;;;;3.55;3.25;;;;;;;18.64;75.97;100157.06;4975876;28;20054;-70
2021/09/19 08:47:40;;;;;;;4.15;3.20;;;;;;;18.69;76.53;100170.84;4976543;28;20425;-71
2021/09/19 08:50:24;;;;;;;3.50;3.20;;;;;;;18.66;74.55;100161.25;4976066;28;20050;-70
2021/09/19 08:53:08;;;;;;;3.22;2.88;;;;;;;18.69;74.33;100168.13;4975752;28;20103;-69
2021/09/19 08:55:51;;;;;;;3.70;2.92;;;;;;;19.00;73.41;100172.03;5123664;23;20064;-68
2021/09/19 08:58:37;;;;;;;3.85;3.30;;;;;;;19.19;72.92;100174.03;5020605;28;20096;-68
2021/09/19 09:01:21;;;;;;;4.38;3.70;;;;;;;19.48;71.00;100165.63;5034274;28;20048;-68
2021/09/19 09:04:05;;;;;;;6.35;3.42;;;;;;;19.71;69.86;100157.97;5020288;28;20103;-69
2021/09/19 09:06:51;;;;;;;3.42;3.03;;;;;;;19.91;69.17;100163.44;5034271;28;20051;-69
2021/09/19 09:09:34;;;;;;;4.90;3.50;;;;;;;20.22;67.92;100166.38;5040358;28;20055;-68
2021/09/19 09:12:18;;;;;;;3.78;3.35;;;;;;;20.51;65.60;100166.78;5040445;28;20548;-68
2021/09/19 09:15:04;;;;;;;3.95;3.42;;;;;;;20.79;65.48;100158.38;5026105;28;20097;-67
2021/09/19 09:17:48;;;;;;;4.07;3.67;;;;;;;21.06;63.72;100160.00;5040039;28;20055;-68
2021/09/19 09:20:53;;;;;;;5.13;4.00;;;;;;;21.26;62.45;100154.28;5039379;28;20122;-69
2021/09/19 09:23:40;;;;;;;5.93;3.05;;;;;;;21.71;61.36;100153.25;5055244;28;20051;-68
2021/09/19 09:26:37;;;;;;;8.60;5.57;;;;;;;22.16;59.37;100159.41;5039462;28;20470;-68
2021/09/19 09:29:23;;;;;;;3.35;2.90;;;;;;;22.68;56.90;100154.34;5025891;28;20411;-69
2021/09/19 09:32:13;;;;;;;3.08;2.72;;;;;;;24.08;53.78;100161.97;5054636;28;20097;-68
2021/09/19 09:35:25;;;;;;;3.83;3.30;;;;;;;25.93;46.70;100170.81;5025688;28;20498;-70
2021/09/19 09:38:21;;;;;;;3.10;2.80;;;;;;;28.32;41.42;100167.84;5039780;28;20048;-69
2021/09/19 09:41:06;;;;;;;4.38;2.80;;;;;;;30.24;37.29;100156.47;5025326;28;20115;-69
2021/09/19 09:43:50;;;;;;;3.50;2.83;;;;;;;31.68;34.59;100162.78;5039592;28;20489;-69
2021/09/19 09:46:34;;;;;;;7.57;6.70;;;;;;;32.83;32.51;100164.69;5039580;28;20094;-70
2021/09/19 09:49:38;;;;;;;3.50;3.20;;;;;;;33.63;30.51;100167.34;5039530;28;20048;-70
2021/09/19 09:52:23;;;;;;;;;;;;;;;33.72;30.15;100166.41;5025601;28;20103;-69
2021/09/19 09:55:10;;;;;;;5.70;3.17;;;;;;;33.97;29.55;100165.22;5039344;28;20009;-70
2021/09/19 09:57:54;;;;;;;3.15;2.85;;;;;;;34.36;28.89;100179.59;5039420;28;20083;-70
2021/09/19 10:00:38;;;;;;;3.10;2.67;;;;;;;35.14;28.18;100174.84;5039069;28;20489;-70
2021/09/19 10:03:23;;;;;;;3.00;2.80;;;;;;;35.70;27.53;100165.13;5039008;28;20106;-70
2021/09/19 10:06:08;;;;;;;3.25;2.95;;;;;;;35.79;26.42;100176.31;5039014;28;20063;-70
2021/09/19 10:08:52;;;;;;;4.07;2.65;;;;;;;36.59;25.58;100169.69;5038852;28;20107;-70
2021/09/19 10:11:37;;;;;;;4.22;2.80;;;;;;;36.57;25.87;100174.72;5039168;28;20411;-70
2021/09/19 10:14:21;;;;;;;4.82;2.80;;;;;;;36.66;25.71;100170.88;5025102;28;20051;-69
2021/09/19 10:17:05;;;;;;;3.15;2.95;;;;;;;37.09;24.85;100173.91;5024716;28;20079;-70
2021/09/19 10:19:50;;;;;;;4.10;3.20;;;;;;;37.29;24.78;100160.25;5053749;28;20052;-70
2021/09/19 10:23:00;;;;;;;5.28;3.30;;;;;;;37.33;24.06;100163.19;5038860;28;20525;-70
2021/09/19 10:25:55;;;;;;;4.97;2.88;;;;;;;38.15;23.73;100152.91;5037273;28;20170;-70
2021/09/19 10:28:44;;;;;;;3.08;2.85;;;;;;;38.85;22.89;100156.13;5038516;28;20051;-70
2021/09/19 10:31:33;;;;;;;3.00;2.78;;;;;;;39.44;21.88;100148.34;5025135;28;20091;-70
2021/09/19 10:34:28;;;;;;;4.35;3.42;;;;;;;38.62;22.94;100146.34;5038296;28;20083;-70
2021/09/19 10:37:12;;;;;;;4.93;3.10;;;;;;;37.68;23.71;100149.09;5038270;28;20419;-71
2021/09/19 10:40:03;;;;;;;3.53;3.00;;;;;;;36.83;24.75;100147.91;5038591;28;20411;-70
2021/09/19 10:42:52;;;;;;;2.80;2.60;;;;;;;36.17;25.10;100150.72;5038777;28;20048;-70
2021/09/19 10:45:42;;;;;;;7.60;3.08;;;;;;;35.81;25.85;100158.22;5024238;28;20055;-70
2021/09/19 10:48:28;;;;;;;3.92;3.40;;;;;;;34.76;26.99;100143.72;5038717;28;20052;-70
2021/09/19 10:51:13;;;;;;;3.10;2.90;;;;;;;33.62;28.60;100147.16;5024362;28;20102;-70
2021/09/19 10:53:57;;;;;;;3.20;2.90;;;;;;;34.30;28.24;100137.34;5024545;28;20048;-70
2021/09/19 10:56:57;;;;;;;3.67;3.13;;;;;;;35.88;26.47;100130.88;5052983;28;20112;-70
2021/09/19 11:00:17;;;;;;;3.08;2.83;;;;;;;36.94;25.62;100129.81;5038115;28;20472;-70
2021/09/19 11:03:07;;;;;;;3.28;2.97;;;;;;;38.64;23.59;100127.31;5038426;28;20067;-70
2021/09/19 11:05:52;;;;;;;4.85;2.90;;;;;;;39.23;22.61;100134.69;5038170;28;20048;-70
2021/09/19 11:08:38;;;;;;;3.40;3.10;;;;;;;39.78;21.54;100128.59;5038258;28;20087;-70
2021/09/19 11:11:24;;;;;;;3.95;3.25;;;;;;;39.35;22.16;100110.47;5037894;28;20106;-70
2021/09/19 11:14:11;;;;;;;3.97;3.58;;;;;;;39.58;21.73;100120.19;5038194;28;20102;-70
2021/09/19 11:16:55;;;;;;;4.10;3.30;;;;;;;39.97;21.33;100125.34;5037819;28;20075;-70
2021/09/19 11:19:38;;;;;;;3.63;3.30;;;;;;;39.65;21.64;100123.28;5053186;28;20052;-70
2021/09/19 11:22:23;;;;;;;3.65;3.08;;;;;;;40.34;20.80;100116.81;5037749;28;20052;-70
2021/09/19 11:25:09;;;;;;;3.17;2.97;;;;;;;40.59;20.76;100107.34;5037796;28;20131;-70
2021/09/19 11:27:53;;;;;;;3.70;2.80;;;;;;;41.15;20.73;100109.31;5038258;28;20052;-70
2021/09/19 11:30:36;;;;;;;3.20;3.00;;;;;;;41.03;19.78;100106.50;5038027;28;20546;-70
2021/09/19 11:33:20;;;;;;;3.15;2.95;;;;;;;41.50;19.54;100110.47;5037789;28;20509;-70
2021/09/19 11:36:10;;;;;;;3.55;3.17;;;;;;;41.89;19.08;100101.31;5037977;28;20099;-70
2021/09/19 11:38:57;;;;;;;3.28;2.97;;;;;;;41.89;19.68;100106.09;5023626;28;20414;-70
2021/09/19 11:41:42;;;;;;;4.65;3.42;;;;;;;42.46;19.07;100106.59;5038161;28;20468;-68
2021/09/19 11:44:26;;;;;;;4.80;3.95;;;;;;;42.24;18.88;100101.56;5024117;28;20056;-67
2021/09/19 11:47:12;;;;;;;3.20;2.92;;;;;;;42.76;18.49;100103.03;5056608;28;20052;-68
2021/09/19 11:49:57;;;;;;;3.42;3.22;;;;;;;43.46;17.95;100099.22;5041713;28;20131;-68
2021/09/19 11:52:41;;;;;;;3.05;2.85;;;;;;;43.22;18.45;100088.22;5056818;28;20188;-68
2021/09/19 11:55:25;;;;;;;3.22;2.92;;;;;;;42.47;19.10;100095.00;5027415;28;20059;-69
2021/09/19 11:58:17;;;;;;;3.95;2.72;;;;;;;41.40;19.68;100093.34;5056677;28;20138;-67
2021/09/19 12:01:03;;;;;;;3.40;3.10;;;;;;;41.73;19.93;100092.03;5041333;28;20098;-70
2021/09/19 12:03:47;;;;;;;3.15;2.90;;;;;;;41.56;20.02;100091.47;5041113;28;20044;-71
2021/09/19 12:06:31;;;;;;;3.20;2.90;;;;;;;40.34;21.33;100100.06;5041097;28;20183;-70
2021/09/19 12:09:19;;;;;;;2.92;2.70;;;;;;;38.14;23.88;100095.59;5027215;28;20102;-70
2021/09/19 12:12:11;;;;;;;3.00;2.80;;;;;;;35.56;26.95;100102.47;5027244;28;20114;-70
2021/09/19 12:14:55;;;;;;;3.65;3.30;;;;;;;33.87;29.28;100101.75;5027073;28;20454;-70
2021/09/19 12:17:39;;;;;;;3.28;3.03;;;;;;;31.98;31.87;100105.50;5040914;28;20095;-69
2021/09/19 12:20:23;;;;;;;4.47;3.08;;;;;;;31.07;33.29;100100.75;5040805;28;20052;-69
2021/09/19 12:23:17;;;;;;;3.28;2.97;;;;;;;30.28;34.81;100088.78;5041401;28;20040;-69
2021/09/19 12:26:01;;;;;;;3.22;2.92;;;;;;;29.94;35.80;100101.41;5040841;28;20370;-69
2021/09/19 12:28:48;;;;;;;4.40;3.28;;;;;;;29.80;36.09;100094.81;5040791;28;20098;-69
2021/09/19 12:31:47;;;;;;;3.83;3.53;;;;;;;30.94;34.16;100093.09;5026773;28;20067;-67
2021/09/19 12:34:31;;;;;;;3.72;3.38;;;;;;;32.40;32.01;100088.34;5041162;28;20060;-69
2021/09/19 12:37:15;;;;;;;3.47;3.17;;;;;;;32.23;32.14;100088.78;5055609;28;20107;-69
2021/09/19 12:40:11;;;;;;;3.75;3.22;;;;;;;31.52;33.43;100100.53;5026607;28;20048;-70
2021/09/19 12:43:07;;;;;;;3.60;3.30;;;;;;;30.83;34.57;100094.25;5040781;28;20040;-69